Wetterdaten vom Donnerstag, 24. Mai 2018

Temperatur Taupunkt Windchill Luftfeuchte Luftdruck Solarstrahlung Regen ET
(Verdunstung von Wasser)
Wind
Max 17.1 °C
10:40
16 °C
10:35
17 °C
10:40
96%
08:05
1012.1 hPa
10:05
338 W/m²
10:20
8.7 km/h
11:00 km/h
Durchschnitt 14.2 °C 13 °C 14.1 °C 93% 1011.4 hPa 120 W/m² 3.9 mm 0.33 mm 0.7 km/h
Min 12.6 °C
04:25
11.3 °C
04:05
12.6 °C
04:25
88%
00:00
1010.5 hPa
02:50
0 km/h (Böe)
00:00 km/h
Zeit
00:00 14.5 °C 12.5 °C 14.5 °C 88% 1011.0 hPa 0 W/m² 0.0 mm 0.000 mm 0.0 km/h
00:05 14.4 °C 12.4 °C 14.4 °C 88% 1011.0 hPa 0 W/m² 0.0 mm 0.000 mm 0.0 km/h
00:10 14.3 °C 12.3 °C 14.3 °C 88% 1011.1 hPa 0 W/m² 0.0 mm 0.000 mm 0.0 km/h
00:15 14.3 °C 12.3 °C 14.3 °C 88% 1011.0 hPa 0 W/m² 0.0 mm 0.000 mm 0.0 km/h
00:20 14.3 °C 12.5 °C 14.3 °C 89% 1011.1 hPa 0 W/m² 0.0 mm 0.000 mm 0.0 km/h
00:25 14.2 °C 12.4 °C 14.2 °C 89% 1010.9 hPa 0 W/m² 0.0 mm 0.000 mm 0.0 km/h
00:30 14.2 °C 12.4 °C 14.2 °C 89% 1011.1 hPa 0 W/m² 0.0 mm 0.000 mm 0.0 km/h
00:35 14.2 °C 12.4 °C 14.2 °C 89% 1011.2 hPa 0 W/m² 0.0 mm 0.000 mm 0.0 km/h
00:40 14.1 °C 12.3 °C 14.1 °C 89% 1011.2 hPa 0 W/m² 0.0 mm 0.000 mm 0.0 km/h
00:45 14.1 °C 12.3 °C 14.1 °C 89% 1011.1 hPa 0 W/m² 0.0 mm 0.000 mm 0.0 km/h
00:50 14.1 °C 12.3 °C 14.1 °C 89% 1011.1 hPa 0 W/m² 0.0 mm 0.000 mm 0.0 km/h
00:55 14.1 °C 12.3 °C 14.1 °C 89% 1011.2 hPa 0 W/m² 0.0 mm 0.000 mm 0.0 km/h
01:00 14.1 °C 12.5 °C 14.1 °C 90% 1011.1 hPa 0 W/m² 0.0 mm 0.000 mm 0.0 km/h
01:05 14.1 °C 12.5 °C 14.1 °C 90% 1011.3 hPa 0 W/m² 0.0 mm 0.000 mm 0.0 km/h
01:10 14.1 °C 12.5 °C 14.1 °C 90% 1011.2 hPa 0 W/m² 0.0 mm 0.000 mm 0.0 km/h
01:15 14.0 °C 12.4 °C 14.0 °C 90% 1011.2 hPa 0 W/m² 0.0 mm 0.000 mm 0.0 km/h
01:20 13.9 °C 12.3 °C 13.9 °C 90% 1011.0 hPa 0 W/m² 0.0 mm 0.000 mm 0.0 km/h
01:25 13.9 °C 12.3 °C 13.9 °C 90% 1011.1 hPa 0 W/m² 0.0 mm 0.000 mm 0.0 km/h
01:30 13.9 °C 12.3 °C 13.9 °C 90% 1011.1 hPa 0 W/m² 0.0 mm 0.000 mm 0.0 km/h
01:35 13.8 °C 12.2 °C 13.8 °C 90% 1011.2 hPa 0 W/m² 0.0 mm 0.000 mm 0.0 km/h
01:40 13.8 °C 12.2 °C 13.8 °C 90% 1011.0 hPa 0 W/m² 0.0 mm 0.000 mm 0.0 km/h
01:45 13.8 °C 12.2 °C 13.8 °C 90% 1011.2 hPa 0 W/m² 0.0 mm 0.000 mm 0.0 km/h
01:50 13.8 °C 12.2 °C 13.8 °C 90% 1011.1 hPa 0 W/m² 0.0 mm 0.000 mm 0.0 km/h
01:55 13.7 °C 12.1 °C 13.7 °C 90% 1011.2 hPa 0 W/m² 0.0 mm 0.000 mm 0.0 km/h
02:00 13.7 °C 12.1 °C 13.7 °C 90% 1010.9 hPa 0 W/m² 0.0 mm 0.000 mm 0.0 km/h
02:05 13.7 °C 12.1 °C 13.7 °C 90% 1011.0 hPa 0 W/m² 0.0 mm 0.000 mm 0.0 km/h
02:10 13.7 °C 12.1 °C 13.7 °C 90% 1011.2 hPa 0 W/m² 0.0 mm 0.000 mm 0.0 km/h
02:15 13.7 °C 12.1 °C 13.7 °C 90% 1011.0 hPa 0 W/m² 0.0 mm 0.000 mm 0.0 km/h
02:20 13.6 °C 12.0 °C 13.6 °C 90% 1010.9 hPa 0 W/m² 0.0 mm 0.000 mm 0.0 km/h
02:25 13.6 °C 12.2 °C 13.6 °C 91% 1010.9 hPa 0 W/m² 0.0 mm 0.000 mm 0.0 km/h
02:30 13.6 °C 12.2 °C 13.6 °C 91% 1010.9 hPa 0 W/m² 0.0 mm 0.000 mm 0.0 km/h
02:35 13.6 °C 12.2 °C 13.6 °C 91% 1010.6 hPa 0 W/m² 0.0 mm 0.000 mm 0.0 km/h
02:40 13.6 °C 12.2 °C 13.6 °C 91% 1010.6 hPa 0 W/m² 0.0 mm 0.000 mm 0.0 km/h
02:45 13.4 °C 12.0 °C 13.4 °C 91% 1010.6 hPa 0 W/m² 0.0 mm 0.000 mm 0.0 km/h
02:50 13.4 °C 12.0 °C 13.4 °C 91% 1010.5 hPa 0 W/m² 0.0 mm 0.000 mm 0.0 km/h
02:55 13.3 °C 11.9 °C 13.3 °C 91% 1010.6 hPa 0 W/m² 0.0 mm 0.000 mm 0.0 km/h
03:00 13.3 °C 11.9 °C 13.3 °C 91% 1010.5 hPa 0 W/m² 0.0 mm 0.000 mm 0.0 km/h
03:05 13.3 °C 11.9 °C 13.3 °C 91% 1010.9 hPa 0 W/m² 0.0 mm 0.000 mm 0.0 km/h
03:10 13.2 °C 11.8 °C 13.2 °C 91% 1011.0 hPa 0 W/m² 0.0 mm 0.000 mm 0.0 km/h
03:15 13.2 °C 11.8 °C 13.2 °C 91% 1010.9 hPa 0 W/m² 0.0 mm 0.000 mm 0.0 km/h
03:20 13.1 °C 11.7 °C 13.1 °C 91% 1010.8 hPa 0 W/m² 0.0 mm 0.000 mm 0.0 km/h
03:25 13.1 °C 11.7 °C 13.1 °C 91% 1011.0 hPa 0 W/m² 0.0 mm 0.000 mm 0.0 km/h
03:30 12.9 °C 11.5 °C 12.9 °C 91% 1011.2 hPa 0 W/m² 0.0 mm 0.000 mm 0.0 km/h
03:35 12.9 °C 11.5 °C 12.9 °C 91% 1011.1 hPa 0 W/m² 0.0 mm 0.000 mm 0.0 km/h
03:40 12.9 °C 11.5 °C 12.9 °C 91% 1011.1 hPa 0 W/m² 0.0 mm 0.000 mm 0.0 km/h
03:45 12.9 °C 11.5 °C 12.9 °C 91% 1011.3 hPa 0 W/m² 0.0 mm 0.000 mm 0.0 km/h
03:50 12.8 °C 11.4 °C 12.8 °C 91% 1011.1 hPa 0 W/m² 0.0 mm 0.000 mm 0.0 km/h
03:55 12.8 °C 11.4 °C 12.8 °C 91% 1011.3 hPa 0 W/m² 0.0 mm 0.000 mm 0.0 km/h
04:00 12.8 °C 11.4 °C 12.8 °C 91% 1011.2 hPa 0 W/m² 0.0 mm 0.000 mm 0.0 km/h
04:05 12.7 °C 11.3 °C 12.7 °C 91% 1011.2 hPa 0 W/m² 0.0 mm 0.000 mm 0.0 km/h
04:10 12.7 °C 11.4 °C 12.7 °C 92% 1011.2 hPa 0 W/m² 0.0 mm 0.000 mm 0.0 km/h
04:15 12.7 °C 11.4 °C 12.7 °C 92% 1011.1 hPa 0 W/m² 0.0 mm 0.000 mm 0.0 km/h
04:20 12.7 °C 11.4 °C 12.7 °C 92% 1011.1 hPa 0 W/m² 0.0 mm 0.000 mm 0.0 km/h
04:25 12.6 °C 11.3 °C 12.6 °C 92% 1011.2 hPa 0 W/m² 0.0 mm 0.000 mm 0.0 km/h
04:30 12.6 °C 11.3 °C 12.6 °C 92% 1011.0 hPa 0 W/m² 0.0 mm 0.000 mm 0.0 km/h
04:35 12.7 °C 11.4 °C 12.7 °C 92% 1011.1 hPa 0 W/m² 0.0 mm 0.000 mm 0.0 km/h
04:40 12.8 °C 11.7 °C 12.8 °C 93% 1011.2 hPa 0 W/m² 0.0 mm 0.000 mm 0.0 km/h
04:45 12.7 °C 11.4 °C 12.7 °C 92% 1011.4 hPa 0 W/m² 0.3 mm 0.000 mm 0.0 km/h
04:50 12.6 °C 11.3 °C 12.6 °C 92% 1011.3 hPa 0 W/m² 0.0 mm 0.000 mm 0.0 km/h
04:55 12.7 °C 11.6 °C 12.7 °C 93% 1011.3 hPa 0 W/m² 0.0 mm 0.000 mm 0.0 km/h
05:00 12.8 °C 11.7 °C 12.8 °C 93% 1011.5 hPa 0 W/m² 0.0 mm 0.000 mm 0.0 km/h
05:05 12.9 °C 11.8 °C 12.9 °C 93% 1011.3 hPa 0 W/m² 0.0 mm 0.000 mm 0.0 km/h
05:10 13.0 °C 11.9 °C 13.0 °C 93% 1011.5 hPa 0 W/m² 0.3 mm 0.000 mm 0.0 km/h
05:15 13.1 °C 12.2 °C 13.1 °C 94% 1011.5 hPa 0 W/m² 0.6 mm 0.000 mm 0.0 km/h
05:20 13.1 °C 12.2 °C 13.1 °C 94% 1011.6 hPa 0 W/m² 0.3 mm 0.000 mm 0.0 km/h
05:25 13.1 °C 12.0 °C 13.1 °C 93% 1011.6 hPa 0 W/m² 0.3 mm 0.000 mm 0.0 km/h
05:30 13.1 °C 12.2 °C 13.1 °C 94% 1011.5 hPa 0 W/m² 0.0 mm 0.000 mm 0.0 km/h
05:35 13.1 °C 12.2 °C 13.1 °C 94% 1011.5 hPa 0 W/m² 0.0 mm 0.000 mm 0.0 km/h
05:40 13.1 °C 12.2 °C 13.1 °C 94% 1011.5 hPa 0 W/m² 0.3 mm 0.000 mm 0.0 km/h
05:45 13.2 °C 12.3 °C 13.2 °C 94% 1011.6 hPa 2 W/m² 0.0 mm 0.000 mm 0.0 km/h
05:50 13.2 °C 12.3 °C 13.2 °C 94% 1011.6 hPa 6 W/m² 0.0 mm 0.000 mm 0.0 km/h
05:55 13.3 °C 12.4 °C 13.3 °C 94% 1011.6 hPa 8 W/m² 0.0 mm 0.000 mm 0.0 km/h
06:00 13.3 °C 12.4 °C 13.3 °C 94% 1011.4 hPa 9 W/m² 0.0 mm 0.000 mm 0.0 km/h
06:05 13.3 °C 12.4 °C 13.3 °C 94% 1011.3 hPa 10 W/m² 0.0 mm 0.000 mm 0.0 km/h
06:10 13.4 °C 12.5 °C 13.4 °C 94% 1011.5 hPa 11 W/m² 0.0 mm 0.000 mm 0.0 km/h
06:15 13.4 °C 12.5 °C 13.4 °C 94% 1011.5 hPa 9 W/m² 0.0 mm 0.000 mm 0.0 km/h
06:20 13.5 °C 12.7 °C 13.5 °C 95% 1011.6 hPa 9 W/m² 0.0 mm 0.000 mm 0.0 km/h
06:25 13.6 °C 12.8 °C 13.6 °C 95% 1011.5 hPa 10 W/m² 0.0 mm 0.000 mm 0.0 km/h
06:30 13.6 °C 12.8 °C 13.6 °C 95% 1011.4 hPa 11 W/m² 0.0 mm 0.000 mm 0.0 km/h
06:35 13.6 °C 12.8 °C 13.6 °C 95% 1011.8 hPa 11 W/m² 0.0 mm 0.000 mm 0.0 km/h
06:40 13.6 °C 12.8 °C 13.6 °C 95% 1011.4 hPa 11 W/m² 0.0 mm 0.000 mm 0.0 km/h
06:45 13.6 °C 12.8 °C 13.6 °C 95% 1011.6 hPa 11 W/m² 0.3 mm 0.000 mm 0.0 km/h
06:50 13.6 °C 12.8 °C 13.6 °C 95% 1011.8 hPa 10 W/m² 0.0 mm 0.000 mm 0.0 km/h
06:55 13.6 °C 12.8 °C 13.6 °C 95% 1011.9 hPa 10 W/m² 0.0 mm 0.000 mm 0.0 km/h
07:00 13.7 °C 12.9 °C 13.7 °C 95% 1011.9 hPa 11 W/m² 0.0 mm 0.000 mm 0.0 km/h
07:05 13.7 °C 12.9 °C 13.7 °C 95% 1011.7 hPa 13 W/m² 0.0 mm 0.000 mm 0.0 km/h
07:10 13.7 °C 12.9 °C 13.7 °C 95% 1011.6 hPa 16 W/m² 0.3 mm 0.000 mm 0.0 km/h
07:15 13.7 °C 12.9 °C 13.7 °C 95% 1011.6 hPa 19 W/m² 0.0 mm 0.000 mm 0.0 km/h
07:20 13.7 °C 12.9 °C 13.7 °C 95% 1011.6 hPa 20 W/m² 0.3 mm 0.000 mm 0.0 km/h
07:25 13.8 °C 13.0 °C 13.8 °C 95% 1011.6 hPa 25 W/m² 0.0 mm 0.000 mm 0.0 km/h
07:30 13.8 °C 13.0 °C 13.8 °C 95% 1011.4 hPa 28 W/m² 0.0 mm 0.000 mm 0.0 km/h
07:35 13.8 °C 13.0 °C 13.8 °C 95% 1011.7 hPa 33 W/m² 0.3 mm 0.000 mm 0.0 km/h
07:40 13.9 °C 13.1 °C 13.9 °C 95% 1011.8 hPa 39 W/m² 0.0 mm 0.000 mm 0.0 km/h
07:45 13.9 °C 13.1 °C 13.9 °C 95% 1011.7 hPa 47 W/m² 0.3 mm 0.000 mm 0.0 km/h
07:50 13.9 °C 13.1 °C 13.9 °C 95% 1011.5 hPa 53 W/m² 0.0 mm 0.000 mm 0.0 km/h
07:55 14.0 °C 13.2 °C 14.0 °C 95% 1011.8 hPa 53 W/m² 0.0 mm 0.000 mm 0.0 km/h
08:00 14.1 °C 13.3 °C 14.1 °C 95% 1011.6 hPa 53 W/m² 0.3 mm 0.025 mm 0.0 km/h
08:05 14.1 °C 13.5 °C 14.1 °C 96% 1011.5 hPa 56 W/m² 0.0 mm 0.000 mm 0.0 km/h
08:10 14.2 °C 13.4 °C 14.2 °C 95% 1011.8 hPa 62 W/m² 0.0 mm 0.000 mm 0.0 km/h
08:15 14.3 °C 13.7 °C 14.3 °C 96% 1011.5 hPa 68 W/m² 0.0 mm 0.000 mm 0.0 km/h
08:20 14.3 °C 13.7 °C 14.3 °C 96% 1011.1 hPa 73 W/m² 0.0 mm 0.000 mm 0.0 km/h
08:25 14.4 °C 13.8 °C 14.4 °C 96% 1011.4 hPa 78 W/m² 0.0 mm 0.000 mm 0.0 km/h
08:30 14.4 °C 13.8 °C 14.4 °C 96% 1011.5 hPa 86 W/m² 0.0 mm 0.000 mm 0.0 km/h
08:35 14.5 °C 13.9 °C 14.5 °C 96% 1011.7 hPa 94 W/m² 0.0 mm 0.000 mm 0.0 km/h
08:40 14.6 °C 14.0 °C 14.6 °C 96% 1011.6 hPa 99 W/m² 0.0 mm 0.000 mm 0.2 km/h
08:45 14.6 °C 14.0 °C 14.6 °C 96% 1011.7 hPa 107 W/m² 0.0 mm 0.000 mm 0.0 km/h
08:50 14.7 °C 14.1 °C 14.7 °C 96% 1011.6 hPa 118 W/m² 0.0 mm 0.000 mm 0.7 km/h
08:55 14.8 °C 14.2 °C 14.8 °C 96% 1011.7 hPa 140 W/m² 0.0 mm 0.000 mm 0.0 km/h
09:00 14.9 °C 14.3 °C 14.9 °C 96% 1011.6 hPa 175 W/m² 0.0 mm 0.051 mm 0.0 km/h
09:05 14.9 °C 14.3 °C 14.9 °C 96% 1011.6 hPa 198 W/m² 0.0 mm 0.000 mm 0.0 km/h
09:10 15.2 °C 14.6 °C 15.2 °C 96% 1011.8 hPa 226 W/m² 0.0 mm 0.000 mm 0.5 km/h
09:15 15.2 °C 14.6 °C 15.2 °C 96% 1011.7 hPa 257 W/m² 0.0 mm 0.000 mm 2.2 km/h
09:20 15.3 °C 14.7 °C 15.3 °C 96% 1012.0 hPa 266 W/m² 0.0 mm 0.000 mm 2.6 km/h
09:25 15.4 °C 14.8 °C 15.4 °C 96% 1011.8 hPa 282 W/m² 0.0 mm 0.000 mm 0.4 km/h
09:30 15.7 °C 15.1 °C 15.7 °C 96% 1011.9 hPa 274 W/m² 0.0 mm 0.000 mm 1.5 km/h
09:35 15.8 °C 15.2 °C 15.8 °C 96% 1011.6 hPa 250 W/m² 0.0 mm 0.000 mm 0.5 km/h
09:40 15.8 °C 15.2 °C 15.8 °C 96% 1011.7 hPa 249 W/m² 0.0 mm 0.000 mm 0.3 km/h
09:45 15.9 °C 15.3 °C 15.9 °C 96% 1011.7 hPa 242 W/m² 0.0 mm 0.000 mm 0.7 km/h
09:50 15.9 °C 15.3 °C 15.9 °C 96% 1012.0 hPa 242 W/m² 0.0 mm 0.000 mm 0.7 km/h
09:55 16.0 °C 15.4 °C 16.0 °C 96% 1012.0 hPa 234 W/m² 0.0 mm 0.000 mm 0.0 km/h
10:00 16.1 °C 15.5 °C 16.1 °C 96% 1011.9 hPa 241 W/m² 0.0 mm 0.127 mm 0.3 km/h
10:05 16.3 °C 15.5 °C 16.3 °C 95% 1012.1 hPa 216 W/m² 0.0 mm 0.000 mm 5.0 km/h
10:10 16.4 °C 15.6 °C 16.4 °C 95% 1012.0 hPa 270 W/m² 0.0 mm 0.000 mm 5.2 km/h
10:15 16.6 °C 15.8 °C 16.6 °C 95% 1012.0 hPa 311 W/m² 0.0 mm 0.000 mm 5.9 km/h
10:20 16.8 °C 16.0 °C 16.8 °C 95% 1012.1 hPa 338 W/m² 0.0 mm 0.000 mm 6.2 km/h
10:25 16.9 °C 15.9 °C 16.7 °C 94% 1012.1 hPa 324 W/m² 0.0 mm 0.000 mm 6.9 km/h
10:30 16.9 °C 15.9 °C 15.8 °C 94% 1012.0 hPa 291 W/m² 0.0 mm 0.000 mm 8.6 km/h
10:35 17.0 °C 16.0 °C 16.4 °C 94% 1012.0 hPa 282 W/m² 0.0 mm 0.000 mm 7.5 km/h
10:40 17.0 °C 15.9 °C 17.0 °C 93% 1012.0 hPa 231 W/m² 0.0 mm 0.000 mm 5.9 km/h
10:45 17.0 °C 15.9 °C 17.0 °C 93% 1011.9 hPa 238 W/m² 0.0 mm 0.000 mm 5.5 km/h
10:50 17.0 °C 15.7 °C 17.0 °C 92% 1011.9 hPa 207 W/m² 0.0 mm 0.000 mm 4.5 km/h
10:55 17.0 °C 15.7 °C 17.0 °C 92% 1012.0 hPa 160 W/m² 0.0 mm 0.000 mm 4.1 km/h
11:00 16.8 °C 15.3 °C 15.7 °C 91% 1011.8 hPa 87 W/m² 0.0 mm 0.127 mm 8.7 km/h
11:05 16.8 °C 15.3 °C 16.8 °C 91% 1011.8 hPa 104 W/m² 0.0 mm 0.000 mm 3.4 km/h
11:10 16.7 °C 15.2 °C 16.7 °C 91% 1011.9 hPa 106 W/m² 0.0 mm 0.000 mm 3.4 km/h
11:15 16.7 °C 15.2 °C 16.7 °C 91% 1012.0 hPa 94 W/m² 0.0 mm 0.000 mm 3.3 km/h
11:20 16.7 °C 15.2 °C 16.7 °C 91% 1011.9 hPa 143 W/m² 0.0 mm 0.000 mm 1.6 km/h
11:25 16.7 °C 15.2 °C 16.7 °C 91% 1011.8 hPa 223 W/m² 0.0 mm 0.000 mm 3.7 km/h